sensor_id;sensor_type;location;lat;lon;timestamp;pressure;altitude;pressure_sealevel;temperature;humidity
19594;BME280;9944;48.240;16.478;2023-04-09T00:03:00;100443.38;;;4.92;78.76
19594;BME280;9944;48.240;16.478;2023-04-09T00:07:04;100447.69;;;4.90;78.78
19594;BME280;9944;48.240;16.478;2023-04-09T00:11:07;100448.50;;;4.89;79.09
19594;BME280;9944;48.240;16.478;2023-04-09T00:15:10;100451.19;;;4.90;78.91
19594;BME280;9944;48.240;16.478;2023-04-09T00:19:28;100450.22;;;4.87;78.96
19594;BME280;9944;48.240;16.478;2023-04-09T00:23:33;100449.44;;;4.89;79.01
19594;BME280;9944;48.240;16.478;2023-04-09T00:27:36;100447.84;;;4.94;79.08
19594;BME280;9944;48.240;16.478;2023-04-09T00:31:39;100438.34;;;4.98;79.42
19594;BME280;9944;48.240;16.478;2023-04-09T00:35:42;100441.94;;;5.02;79.35
19594;BME280;9944;48.240;16.478;2023-04-09T00:39:47;100436.88;;;5.08;79.53
19594;BME280;9944;48.240;16.478;2023-04-09T00:43:50;100445.63;;;5.08;79.40
19594;BME280;9944;48.240;16.478;2023-04-09T00:47:53;100438.66;;;5.09;79.41
19594;BME280;9944;48.240;16.478;2023-04-09T00:51:56;100445.63;;;5.10;79.21
19594;BME280;9944;48.240;16.478;2023-04-09T00:56:01;100446.59;;;5.12;79.72
19594;BME280;9944;48.240;16.478;2023-04-09T01:00:07;100444.84;;;5.12;79.32
19594;BME280;9944;48.240;16.478;2023-04-09T01:04:10;100435.25;;;5.13;79.50
19594;BME280;9944;48.240;16.478;2023-04-09T01:08:20;100433.63;;;5.16;79.42
19594;BME280;9944;48.240;16.478;2023-04-09T01:12:32;100437.16;;;5.17;79.55
19594;BME280;9944;48.240;16.478;2023-04-09T01:16:41;100439.66;;;5.14;79.38
19594;BME280;9944;48.240;16.478;2023-04-09T01:20:51;100443.06;;;5.11;79.54
19594;BME280;9944;48.240;16.478;2023-04-09T01:25:08;100437.78;;;5.10;79.37
19594;BME280;9944;48.240;16.478;2023-04-09T01:29:19;100435.16;;;5.10;79.57
19594;BME280;9944;48.240;16.478;2023-04-09T01:33:24;100436.91;;;5.09;79.36
19594;BME280;9944;48.240;16.478;2023-04-09T01:37:28;100430.75;;;5.07;79.44
19594;BME280;9944;48.240;16.478;2023-04-09T01:41:32;100429.00;;;5.08;79.43
19594;BME280;9944;48.240;16.478;2023-04-09T01:45:37;100429.91;;;5.08;79.38
19594;BME280;9944;48.240;16.478;2023-04-09T01:49:41;100429.81;;;5.05;79.39
19594;BME280;9944;48.240;16.478;2023-04-09T01:53:45;100428.84;;;5.02;79.31
19594;BME280;9944;48.240;16.478;2023-04-09T01:57:48;100427.03;;;4.99;79.52
19594;BME280;9944;48.240;16.478;2023-04-09T02:01:56;100426.13;;;4.98;79.45
19594;BME280;9944;48.240;16.478;2023-04-09T02:06:05;100428.66;;;4.95;79.54
19594;BME280;9944;48.240;16.478;2023-04-09T02:10:10;100437.38;;;4.96;79.49
19594;BME280;9944;48.240;16.478;2023-04-09T02:14:15;100419.13;;;4.97;79.70
19594;BME280;9944;48.240;16.478;2023-04-09T02:18:23;100422.66;;;4.98;79.59
19594;BME280;9944;48.240;16.478;2023-04-09T02:22:28;100432.13;;;4.94;79.40
19594;BME280;9944;48.240;16.478;2023-04-09T02:26:32;100434.59;;;4.90;79.63
19594;BME280;9944;48.240;16.478;2023-04-09T02:30:35;100441.56;;;4.89;79.72
19594;BME280;9944;48.240;16.478;2023-04-09T02:34:40;100444.88;;;4.84;79.28
19594;BME280;9944;48.240;16.478;2023-04-09T02:38:43;100444.81;;;4.81;79.45
19594;BME280;9944;48.240;16.478;2023-04-09T02:42:46;100443.06;;;4.81;79.72
19594;BME280;9944;48.240;16.478;2023-04-09T02:46:50;100436.16;;;4.83;79.92
19594;BME280;9944;48.240;16.478;2023-04-09T02:50:55;100439.75;;;4.87;79.85
19594;BME280;9944;48.240;16.478;2023-04-09T02:54:58;100439.84;;;4.90;80.03
19594;BME280;9944;48.240;16.478;2023-04-09T02:59:01;100433.84;;;4.94;80.02
19594;BME280;9944;48.240;16.478;2023-04-09T03:03:04;100437.38;;;4.96;79.86
19594;BME280;9944;48.240;16.478;2023-04-09T03:07:09;100440.91;;;4.96;79.75
19594;BME280;9944;48.240;16.478;2023-04-09T03:11:12;100440.00;;;4.96;79.72
19594;BME280;9944;48.240;16.478;2023-04-09T03:15:16;100434.81;;;4.97;79.89
19594;BME280;9944;48.240;16.478;2023-04-09T03:19:19;100434.88;;;4.99;79.76
19594;BME280;9944;48.240;16.478;2023-04-09T03:23:23;100437.44;;;4.97;79.80
19594;BME280;9944;48.240;16.478;2023-04-09T03:27:27;100440.91;;;4.96;79.81
19594;BME280;9944;48.240;16.478;2023-04-09T03:31:32;100439.84;;;4.90;79.50
19594;BME280;9944;48.240;16.478;2023-04-09T03:35:35;100436.09;;;4.82;79.54
19594;BME280;9944;48.240;16.478;2023-04-09T03:39:40;100437.78;;;4.79;79.85
19594;BME280;9944;48.240;16.478;2023-04-09T03:43:43;100436.97;;;4.81;80.05
19594;BME280;9944;48.240;16.478;2023-04-09T03:47:49;100437.88;;;4.83;80.15
19594;BME280;9944;48.240;16.478;2023-04-09T03:51:56;100442.22;;;4.82;80.23
19594;BME280;9944;48.240;16.478;2023-04-09T03:56:09;100440.44;;;4.81;80.11
19594;BME280;9944;48.240;16.478;2023-04-09T04:00:13;100443.91;;;4.80;80.41
19594;BME280;9944;48.240;16.478;2023-04-09T04:04:25;100456.84;;;4.75;80.08
19594;BME280;9944;48.240;16.478;2023-04-09T04:08:31;100457.63;;;4.73;80.54
19594;BME280;9944;48.240;16.478;2023-04-09T04:12:35;100460.31;;;4.74;80.20
19594;BME280;9944;48.240;16.478;2023-04-09T04:16:46;100456.56;;;4.66;80.23
19594;BME280;9944;48.240;16.478;2023-04-09T04:20:53;100465.16;;;4.62;80.15
19594;BME280;9944;48.240;16.478;2023-04-09T04:24:56;100465.16;;;4.62;80.53
19594;BME280;9944;48.240;16.478;2023-04-09T04:29:01;100469.69;;;4.68;80.68
19594;BME280;9944;48.240;16.478;2023-04-09T04:33:30;100469.69;;;4.68;80.32
19594;BME280;9944;48.240;16.478;2023-04-09T04:37:34;100472.34;;;4.69;80.63
19594;BME280;9944;48.240;16.478;2023-04-09T04:41:37;100480.34;;;4.74;80.88
19594;BME280;9944;48.240;16.478;2023-04-09T04:45:53;100482.19;;;4.78;80.84
19594;BME280;9944;48.240;16.478;2023-04-09T04:49:59;100488.25;;;4.75;80.47
19594;BME280;9944;48.240;16.478;2023-04-09T04:54:09;100490.84;;;4.75;80.51
19594;BME280;9944;48.240;16.478;2023-04-09T04:58:15;100483.94;;;4.77;80.73
19594;BME280;9944;48.240;16.478;2023-04-09T05:02:25;100491.84;;;4.79;80.82
19594;BME280;9944;48.240;16.478;2023-04-09T05:06:48;100489.16;;;4.77;80.59
19594;BME280;9944;48.240;16.478;2023-04-09T05:10:56;100488.91;;;4.70;80.39
19594;BME280;9944;48.240;16.478;2023-04-09T05:15:07;100495.72;;;4.65;80.37
19594;BME280;9944;48.240;16.478;2023-04-09T05:19:13;100495.59;;;4.60;80.58
19594;BME280;9944;48.240;16.478;2023-04-09T05:23:17;100499.78;;;4.55;80.49
19594;BME280;9944;48.240;16.478;2023-04-09T05:27:23;100501.47;;;4.53;80.60
19594;BME280;9944;48.240;16.478;2023-04-09T05:31:33;100503.13;;;4.51;80.70
19594;BME280;9944;48.240;16.478;2023-04-09T05:35:42;100500.50;;;4.49;80.72
19594;BME280;9944;48.240;16.478;2023-04-09T05:39:45;100516.03;;;4.45;80.61
19594;BME280;9944;48.240;16.478;2023-04-09T05:43:48;100516.94;;;4.47;80.82
19594;BME280;9944;48.240;16.478;2023-04-09T05:47:53;100520.44;;;4.47;80.97
19594;BME280;9944;48.240;16.478;2023-04-09T05:51:59;100523.97;;;4.48;81.06
19594;BME280;9944;48.240;16.478;2023-04-09T05:56:12;100518.91;;;4.54;81.51
19594;BME280;9944;48.240;16.478;2023-04-09T06:00:24;100525.34;;;4.64;81.71
19594;BME280;9944;48.240;16.478;2023-04-09T06:04:27;100521.22;;;4.70;81.70
19594;BME280;9944;48.240;16.478;2023-04-09T06:08:31;100526.63;;;4.76;81.57
19594;BME280;9944;48.240;16.478;2023-04-09T06:12:35;100526.56;;;4.75;81.19
19594;BME280;9944;48.240;16.478;2023-04-09T06:16:38;100533.63;;;4.77;81.42
19594;BME280;9944;48.240;16.478;2023-04-09T06:20:41;100526.00;;;4.85;81.72
19594;BME280;9944;48.240;16.478;2023-04-09T06:24:45;100531.50;;;4.93;81.98
19594;BME280;9944;48.240;16.478;2023-04-09T06:28:48;100541.09;;;4.94;81.20
19594;BME280;9944;48.240;16.478;2023-04-09T06:32:51;100534.13;;;4.93;81.20
19594;BME280;9944;48.240;16.478;2023-04-09T06:36:56;100529.06;;;4.99;81.29
19594;BME280;9944;48.240;16.478;2023-04-09T06:41:00;100537.06;;;5.04;81.36
19594;BME280;9944;48.240;16.478;2023-04-09T06:45:05;100541.69;;;5.12;81.58
19594;BME280;9944;48.240;16.478;2023-04-09T06:49:09;100550.56;;;5.18;81.09
19594;BME280;9944;48.240;16.478;2023-04-09T06:53:13;100545.34;;;5.18;80.86
19594;BME280;9944;48.240;16.478;2023-04-09T06:57:18;100541.91;;;5.20;80.64
19594;BME280;9944;48.240;16.478;2023-04-09T07:01:21;100552.53;;;5.25;80.96
19594;BME280;9944;48.240;16.478;2023-04-09T07:05:24;100550.00;;;5.28;80.72
19594;BME280;9944;48.240;16.478;2023-04-09T07:09:27;100556.16;;;5.30;80.53
19594;BME280;9944;48.240;16.478;2023-04-09T07:13:33;100566.75;;;5.33;79.97
19594;BME280;9944;48.240;16.478;2023-04-09T07:17:36;100565.03;;;5.35;79.90
19594;BME280;9944;48.240;16.478;2023-04-09T07:21:39;100571.16;;;5.35;79.87
19594;BME280;9944;48.240;16.478;2023-04-09T07:25:42;100570.44;;;5.40;79.90
19594;BME280;9944;48.240;16.478;2023-04-09T07:29:47;100573.88;;;5.39;79.64
19594;BME280;9944;48.240;16.478;2023-04-09T07:33:50;100583.53;;;5.40;79.30
19594;BME280;9944;48.240;16.478;2023-04-09T07:37:54;100584.31;;;5.37;79.32
19594;BME280;9944;48.240;16.478;2023-04-09T07:42:01;100590.34;;;5.34;79.05
19594;BME280;9944;48.240;16.478;2023-04-09T07:46:06;100587.72;;;5.34;78.73
19594;BME280;9944;48.240;16.478;2023-04-09T07:50:10;100589.63;;;5.40;78.84
19594;BME280;9944;48.240;16.478;2023-04-09T07:54:13;100588.97;;;5.47;78.75
19594;BME280;9944;48.240;16.478;2023-04-09T07:58:16;100591.63;;;5.49;78.70
19594;BME280;9944;48.240;16.478;2023-04-09T08:02:21;100584.66;;;5.49;78.21
19594;BME280;9944;48.240;16.478;2023-04-09T08:06:24;100586.53;;;5.53;78.91
19594;BME280;9944;48.240;16.478;2023-04-09T08:10:28;100592.03;;;5.63;78.55
19594;BME280;9944;48.240;16.478;2023-04-09T08:14:31;100589.63;;;5.70;78.23
19594;BME280;9944;48.240;16.478;2023-04-09T08:18:35;100594.25;;;5.79;78.09
19594;BME280;9944;48.240;16.478;2023-04-09T08:22:39;100589.34;;;5.91;77.78
19594;BME280;9944;48.240;16.478;2023-04-09T08:26:43;100599.25;;;6.02;76.93
19594;BME280;9944;48.240;16.478;2023-04-09T08:30:46;100589.28;;;6.20;76.94
19594;BME280;9944;48.240;16.478;2023-04-09T08:34:51;100603.56;;;6.32;76.84
19594;BME280;9944;48.240;16.478;2023-04-09T08:38:54;100597.69;;;6.42;76.02
19594;BME280;9944;48.240;16.478;2023-04-09T08:42:58;100597.69;;;6.42;75.44
19594;BME280;9944;48.240;16.478;2023-04-09T08:47:06;100603.00;;;6.43;75.50
19594;BME280;9944;48.240;16.478;2023-04-09T08:51:13;100604.84;;;6.46;75.41
19594;BME280;9944;48.240;16.478;2023-04-09T08:55:16;100603.22;;;6.51;74.90
19594;BME280;9944;48.240;16.478;2023-04-09T08:59:19;100605.94;;;6.56;74.83
19594;BME280;9944;48.240;16.478;2023-04-09T09:03:22;100614.97;;;6.65;74.66
19594;BME280;9944;48.240;16.478;2023-04-09T09:07:28;100616.78;;;6.70;74.29
19594;BME280;9944;48.240;16.478;2023-04-09T09:11:31;100614.19;;;6.70;74.41
19594;BME280;9944;48.240;16.478;2023-04-09T09:15:35;100615.97;;;6.71;73.83
19594;BME280;9944;48.240;16.478;2023-04-09T09:19:38;100612.50;;;6.72;73.70
19594;BME280;9944;48.240;16.478;2023-04-09T09:23:42;100614.44;;;6.79;74.28
19594;BME280;9944;48.240;16.478;2023-04-09T09:27:46;100618.09;;;6.85;73.81
19594;BME280;9944;48.240;16.478;2023-04-09T09:31:49;100614.84;;;6.96;73.65
19594;BME280;9944;48.240;16.478;2023-04-09T09:35:53;100613.28;;;7.04;73.49
19594;BME280;9944;48.240;16.478;2023-04-09T09:40:00;100603.09;;;7.18;73.25
19594;BME280;9944;48.240;16.478;2023-04-09T09:44:03;100608.41;;;7.21;72.21
19594;BME280;9944;48.240;16.478;2023-04-09T09:48:10;100605.19;;;7.33;72.24
19594;BME280;9944;48.240;16.478;2023-04-09T09:52:14;100599.28;;;7.43;71.55
19594;BME280;9944;48.240;16.478;2023-04-09T09:56:21;100598.72;;;7.58;72.21
19594;BME280;9944;48.240;16.478;2023-04-09T10:00:26;100597.22;;;7.69;71.40
19594;BME280;9944;48.240;16.478;2023-04-09T10:04:32;100599.25;;;7.83;71.94
19594;BME280;9944;48.240;16.478;2023-04-09T10:08:36;100601.25;;;7.96;70.77
19594;BME280;9944;48.240;16.478;2023-04-09T10:12:44;100597.03;;;8.04;70.16
19594;BME280;9944;48.240;16.478;2023-04-09T10:16:48;100599.75;;;8.07;69.38
19594;BME280;9944;48.240;16.478;2023-04-09T10:20:56;100588.22;;;8.01;69.43
19594;BME280;9944;48.240;16.478;2023-04-09T10:25:00;100591.81;;;8.06;69.21
19594;BME280;9944;48.240;16.478;2023-04-09T10:29:07;100576.97;;;8.09;69.98
19594;BME280;9944;48.240;16.478;2023-04-09T10:33:13;100582.44;;;8.20;69.95
19594;BME280;9944;48.240;16.478;2023-04-09T10:37:21;100577.34;;;8.29;69.33
19594;BME280;9944;48.240;16.478;2023-04-09T10:41:27;100581.06;;;8.39;68.76
19594;BME280;9944;48.240;16.478;2023-04-09T10:45:40;100570.59;;;8.42;67.57
19594;BME280;9944;48.240;16.478;2023-04-09T10:49:43;100579.53;;;8.50;68.33
19594;BME280;9944;48.240;16.478;2023-04-09T10:53:46;100566.47;;;8.58;67.87
19594;BME280;9944;48.240;16.478;2023-04-09T10:57:54;100570.09;;;8.65;67.29
19594;BME280;9944;48.240;16.478;2023-04-09T11:01:59;100567.47;;;8.65;67.15
19594;BME280;9944;48.240;16.478;2023-04-09T11:06:03;100565.69;;;8.64;67.10
19594;BME280;9944;48.240;16.478;2023-04-09T11:10:11;100560.59;;;8.73;67.37
19594;BME280;9944;48.240;16.478;2023-04-09T11:14:18;100566.84;;;8.81;67.19
19594;BME280;9944;48.240;16.478;2023-04-09T11:18:23;100558.09;;;8.82;66.81
19594;BME280;9944;48.240;16.478;2023-04-09T11:22:27;100560.00;;;8.91;66.15
19594;BME280;9944;48.240;16.478;2023-04-09T11:26:34;100552.00;;;8.83;65.37
19594;BME280;9944;48.240;16.478;2023-04-09T11:30:37;100558.94;;;8.81;65.48
19594;BME280;9944;48.240;16.478;2023-04-09T11:34:43;100557.19;;;8.80;65.40
19594;BME280;9944;48.240;16.478;2023-04-09T11:38:47;100555.53;;;8.85;65.21
19594;BME280;9944;48.240;16.478;2023-04-09T11:42:52;100557.38;;;8.92;64.39
19594;BME280;9944;48.240;16.478;2023-04-09T11:46:57;100551.31;;;8.98;63.94
19594;BME280;9944;48.240;16.478;2023-04-09T11:51:02;100559.38;;;9.09;63.96
19594;BME280;9944;48.240;16.478;2023-04-09T11:55:06;100545.47;;;9.19;63.52
19594;BME280;9944;48.240;16.478;2023-04-09T11:59:13;100555.31;;;9.33;62.23
19594;BME280;9944;48.240;16.478;2023-04-09T12:03:16;100545.72;;;9.38;61.39
19594;BME280;9944;48.240;16.478;2023-04-09T12:07:20;100549.19;;;9.35;61.21
19594;BME280;9944;48.240;16.478;2023-04-09T12:11:28;100547.38;;;9.29;61.30
19594;BME280;9944;48.240;16.478;2023-04-09T12:15:33;100550.91;;;9.31;62.10
19594;BME280;9944;48.240;16.478;2023-04-09T12:19:36;100548.38;;;9.38;61.95
19594;BME280;9944;48.240;16.478;2023-04-09T12:23:41;100551.06;;;9.44;61.62
19594;BME280;9944;48.240;16.478;2023-04-09T12:27:44;100553.63;;;9.38;61.13
19594;BME280;9944;48.240;16.478;2023-04-09T12:31:47;100548.28;;;9.33;61.92
19594;BME280;9944;48.240;16.478;2023-04-09T12:35:50;100550.19;;;9.43;62.54
19594;BME280;9944;48.240;16.478;2023-04-09T12:39:55;100547.56;;;9.45;62.14
19594;BME280;9944;48.240;16.478;2023-04-09T12:43:58;100552.81;;;9.42;62.04
19594;BME280;9944;48.240;16.478;2023-04-09T12:48:01;100547.50;;;9.37;62.61
19594;BME280;9944;48.240;16.478;2023-04-09T12:52:04;100543.94;;;9.34;62.31
19594;BME280;9944;48.240;16.478;2023-04-09T12:56:09;100547.53;;;9.42;62.31
19594;BME280;9944;48.240;16.478;2023-04-09T13:00:13;100546.75;;;9.47;62.28
19594;BME280;9944;48.240;16.478;2023-04-09T13:04:16;100542.41;;;9.51;62.47
19594;BME280;9944;48.240;16.478;2023-04-09T13:08:19;100537.13;;;9.54;62.15
19594;BME280;9944;48.240;16.478;2023-04-09T13:12:24;100535.34;;;9.50;61.73
19594;BME280;9944;48.240;16.478;2023-04-09T13:16:27;100531.88;;;9.54;62.27
19594;BME280;9944;48.240;16.478;2023-04-09T13:20:30;100531.91;;;9.57;61.44
19594;BME280;9944;48.240;16.478;2023-04-09T13:24:34;100531.91;;;9.56;61.40
19594;BME280;9944;48.240;16.478;2023-04-09T13:28:38;100528.47;;;9.63;61.54
19594;BME280;9944;48.240;16.478;2023-04-09T13:32:42;100525.84;;;9.64;61.18
19594;BME280;9944;48.240;16.478;2023-04-09T13:36:45;100521.63;;;9.77;60.89
19594;BME280;9944;48.240;16.478;2023-04-09T13:40:48;100526.00;;;9.78;61.63
19594;BME280;9944;48.240;16.478;2023-04-09T13:44:53;100524.28;;;9.82;61.01
19594;BME280;9944;48.240;16.478;2023-04-09T13:48:57;100523.38;;;9.80;60.73
19594;BME280;9944;48.240;16.478;2023-04-09T13:53:00;100523.34;;;9.74;61.02
19594;BME280;9944;48.240;16.478;2023-04-09T13:57:06;100527.91;;;9.90;61.72
19594;BME280;9944;48.240;16.478;2023-04-09T14:01:12;100521.81;;;9.91;61.18
19594;BME280;9944;48.240;16.478;2023-04-09T14:05:15;100516.38;;;9.83;60.83
19594;BME280;9944;48.240;16.478;2023-04-09T14:09:18;100516.38;;;9.82;60.93
19594;BME280;9944;48.240;16.478;2023-04-09T14:13:21;100522.56;;;9.85;61.01
19594;BME280;9944;48.240;16.478;2023-04-09T14:17:26;100522.50;;;9.78;60.39
19594;BME280;9944;48.240;16.478;2023-04-09T14:21:29;100522.50;;;9.78;60.69
19594;BME280;9944;48.240;16.478;2023-04-09T14:25:32;100520.69;;;9.72;59.93
19594;BME280;9944;48.240;16.478;2023-04-09T14:29:35;100524.16;;;9.71;60.44
19594;BME280;9944;48.240;16.478;2023-04-09T14:33:40;100527.75;;;9.76;60.48
19594;BME280;9944;48.240;16.478;2023-04-09T14:37:43;100528.63;;;9.74;60.51
19594;BME280;9944;48.240;16.478;2023-04-09T14:41:47;100523.28;;;9.71;59.80
19594;BME280;9944;48.240;16.478;2023-04-09T14:45:50;100525.03;;;9.68;59.99
19594;BME280;9944;48.240;16.478;2023-04-09T14:49:56;100516.19;;;9.66;59.36
19594;BME280;9944;48.240;16.478;2023-04-09T14:53:59;100523.22;;;9.64;59.76
19594;BME280;9944;48.240;16.478;2023-04-09T14:58:02;100517.09;;;9.67;60.05
19594;BME280;9944;48.240;16.478;2023-04-09T15:02:07;100509.22;;;9.68;59.63
19594;BME280;9944;48.240;16.478;2023-04-09T15:06:13;100505.69;;;9.69;59.83
19594;BME280;9944;48.240;16.478;2023-04-09T15:10:16;100513.59;;;9.69;59.77
19594;BME280;9944;48.240;16.478;2023-04-09T15:14:19;100514.50;;;9.68;59.40
19594;BME280;9944;48.240;16.478;2023-04-09T15:18:24;100514.41;;;9.62;58.98
19594;BME280;9944;48.240;16.478;2023-04-09T15:22:28;100517.84;;;9.55;58.63
19594;BME280;9944;48.240;16.478;2023-04-09T15:26:33;100522.16;;;9.48;59.06
19594;BME280;9944;48.240;16.478;2023-04-09T15:30:36;100515.13;;;9.47;59.07
19594;BME280;9944;48.240;16.478;2023-04-09T15:34:39;100517.75;;;9.49;59.30
19594;BME280;9944;48.240;16.478;2023-04-09T15:38:44;100507.19;;;9.46;59.44
19594;BME280;9944;48.240;16.478;2023-04-09T15:42:47;100516.81;;;9.45;59.24
19594;BME280;9944;48.240;16.478;2023-04-09T15:46:51;100521.28;;;9.48;59.39
19594;BME280;9944;48.240;16.478;2023-04-09T15:50:54;100521.31;;;9.53;59.42
19594;BME280;9944;48.240;16.478;2023-04-09T15:54:58;100519.53;;;9.50;59.34
19594;BME280;9944;48.240;16.478;2023-04-09T15:59:02;100532.63;;;9.42;59.31
19594;BME280;9944;48.240;16.478;2023-04-09T16:03:06;100531.72;;;9.42;59.09
19594;BME280;9944;48.240;16.478;2023-04-09T16:07:09;100529.06;;;9.40;59.16
19594;BME280;9944;48.240;16.478;2023-04-09T16:11:13;100526.38;;;9.36;59.21
19594;BME280;9944;48.240;16.478;2023-04-09T16:15:17;100524.56;;;9.33;59.34
19594;BME280;9944;48.240;16.478;2023-04-09T16:19:20;100522.81;;;9.30;59.75
19594;BME280;9944;48.240;16.478;2023-04-09T16:23:25;100525.41;;;9.27;59.77
19594;BME280;9944;48.240;16.478;2023-04-09T16:27:32;100522.72;;;9.26;59.72
19594;BME280;9944;48.240;16.478;2023-04-09T16:31:36;100526.22;;;9.23;59.29
19594;BME280;9944;48.240;16.478;2023-04-09T16:35:40;100520.91;;;9.20;59.57
19594;BME280;9944;48.240;16.478;2023-04-09T16:39:43;100522.66;;;9.21;60.05
19594;BME280;9944;48.240;16.478;2023-04-09T16:43:48;100523.59;;;9.23;60.12
19594;BME280;9944;48.240;16.478;2023-04-09T16:47:52;100524.50;;;9.25;60.49
19594;BME280;9944;48.240;16.478;2023-04-09T16:51:55;100528.91;;;9.28;60.78
19594;BME280;9944;48.240;16.478;2023-04-09T16:55:59;100532.44;;;9.30;60.65
19594;BME280;9944;48.240;16.478;2023-04-09T17:00:05;100530.63;;;9.26;60.35
19594;BME280;9944;48.240;16.478;2023-04-09T17:04:08;100532.41;;;9.25;60.13
19594;BME280;9944;48.240;16.478;2023-04-09T17:08:11;100531.50;;;9.26;60.87
19594;BME280;9944;48.240;16.478;2023-04-09T17:12:15;100530.63;;;9.24;60.61
19594;BME280;9944;48.240;16.478;2023-04-09T17:16:19;100540.31;;;9.25;60.54
19594;BME280;9944;48.240;16.478;2023-04-09T17:20:23;100542.03;;;9.23;60.88
19594;BME280;9944;48.240;16.478;2023-04-09T17:24:26;100534.09;;;9.20;61.16
19594;BME280;9944;48.240;16.478;2023-04-09T17:28:30;100541.88;;;9.14;61.20
19594;BME280;9944;48.240;16.478;2023-04-09T17:32:35;100546.22;;;9.10;61.35
19594;BME280;9944;48.240;16.478;2023-04-09T17:36:40;100541.81;;;9.08;61.85
19594;BME280;9944;48.240;16.478;2023-04-09T17:40:43;100549.63;;;9.02;62.00
19594;BME280;9944;48.240;16.478;2023-04-09T17:44:46;100548.66;;;8.97;62.27
19594;BME280;9944;48.240;16.478;2023-04-09T17:48:51;100555.63;;;8.93;62.25
19594;BME280;9944;48.240;16.478;2023-04-09T17:52:55;100558.22;;;8.91;62.46
19594;BME280;9944;48.240;16.478;2023-04-09T17:56:58;100566.13;;;8.88;62.56
19594;BME280;9944;48.240;16.478;2023-04-09T18:01:05;100566.00;;;8.82;62.33
19594;BME280;9944;48.240;16.478;2023-04-09T18:05:10;100572.88;;;8.74;62.68
19594;BME280;9944;48.240;16.478;2023-04-09T18:09:13;100569.28;;;8.69;62.95
19594;BME280;9944;48.240;16.478;2023-04-09T18:13:16;100576.22;;;8.64;63.08
19594;BME280;9944;48.240;16.478;2023-04-09T18:17:20;100577.91;;;8.60;63.16
19594;BME280;9944;48.240;16.478;2023-04-09T18:21:24;100579.50;;;8.49;63.41
19594;BME280;9944;48.240;16.478;2023-04-09T18:25:28;100586.44;;;8.45;63.78
19594;BME280;9944;48.240;16.478;2023-04-09T18:29:31;100587.22;;;8.41;63.74
19594;BME280;9944;48.240;16.478;2023-04-09T18:33:35;100591.41;;;8.30;63.66
19594;BME280;9944;48.240;16.478;2023-04-09T18:37:39;100598.31;;;8.25;64.29
19594;BME280;9944;48.240;16.478;2023-04-09T18:41:42;100601.69;;;8.17;64.11
19594;BME280;9944;48.240;16.478;2023-04-09T18:45:45;100611.28;;;8.15;64.56
19594;BME280;9944;48.240;16.478;2023-04-09T18:49:50;100612.16;;;8.14;64.41
19594;BME280;9944;48.240;16.478;2023-04-09T18:53:54;100609.47;;;8.13;64.65
19594;BME280;9944;48.240;16.478;2023-04-09T18:57:58;100617.34;;;8.11;64.32
19594;BME280;9944;48.240;16.478;2023-04-09T19:02:01;100612.00;;;8.08;64.25
19594;BME280;9944;48.240;16.478;2023-04-09T19:06:13;100622.41;;;8.01;64.41
19594;BME280;9944;48.240;16.478;2023-04-09T19:10:19;100613.56;;;7.97;64.28
19594;BME280;9944;48.240;16.478;2023-04-09T19:14:23;100614.44;;;7.97;64.41
19594;BME280;9944;48.240;16.478;2023-04-09T19:18:26;100629.41;;;8.00;64.55
19594;BME280;9944;48.240;16.478;2023-04-09T19:22:29;100621.53;;;8.00;64.45
19594;BME280;9944;48.240;16.478;2023-04-09T19:26:33;100631.09;;;7.98;64.20
19594;BME280;9944;48.240;16.478;2023-04-09T19:30:37;100623.94;;;7.91;63.89
19594;BME280;9944;48.240;16.478;2023-04-09T19:34:40;100632.56;;;7.84;64.29
19594;BME280;9944;48.240;16.478;2023-04-09T19:38:43;100633.34;;;7.79;64.22
19594;BME280;9944;48.240;16.478;2023-04-09T19:42:47;100632.44;;;7.77;64.38
19594;BME280;9944;48.240;16.478;2023-04-09T19:46:51;100635.91;;;7.76;64.50
19594;BME280;9944;48.240;16.478;2023-04-09T19:50:57;100634.09;;;7.72;64.66
19594;BME280;9944;48.240;16.478;2023-04-09T19:55:00;100637.53;;;7.70;64.82
19594;BME280;9944;48.240;16.478;2023-04-09T19:59:06;100638.41;;;7.70;65.00
19594;BME280;9944;48.240;16.478;2023-04-09T20:03:09;100643.69;;;7.72;64.85
19594;BME280;9944;48.240;16.478;2023-04-09T20:07:12;100644.44;;;7.66;65.20
19594;BME280;9944;48.240;16.478;2023-04-09T20:11:16;100635.59;;;7.61;65.26
19594;BME280;9944;48.240;16.478;2023-04-09T20:15:21;100646.00;;;7.58;65.32
19594;BME280;9944;48.240;16.478;2023-04-09T20:19:24;100633.69;;;7.54;65.54
19594;BME280;9944;48.240;16.478;2023-04-09T20:23:27;100636.19;;;7.49;65.66
19594;BME280;9944;48.240;16.478;2023-04-09T20:27:31;100634.41;;;7.47;65.52
19594;BME280;9944;48.240;16.478;2023-04-09T20:31:35;100635.13;;;7.39;65.96
19594;BME280;9944;48.240;16.478;2023-04-09T20:35:38;100635.97;;;7.38;66.10
19594;BME280;9944;48.240;16.478;2023-04-09T20:39:42;100640.22;;;7.33;66.03
19594;BME280;9944;48.240;16.478;2023-04-09T20:43:45;100641.94;;;7.31;66.33
19594;BME280;9944;48.240;16.478;2023-04-09T20:47:50;100636.59;;;7.28;66.59
19594;BME280;9944;48.240;16.478;2023-04-09T20:51:54;100637.47;;;7.27;66.52
19594;BME280;9944;48.240;16.478;2023-04-09T20:55:57;100638.09;;;7.17;66.60
19594;BME280;9944;48.240;16.478;2023-04-09T21:00:02;100638.94;;;7.16;66.82
19594;BME280;9944;48.240;16.478;2023-04-09T21:04:07;100645.09;;;7.18;67.06
19594;BME280;9944;48.240;16.478;2023-04-09T21:08:10;100645.03;;;7.15;67.00
19594;BME280;9944;48.240;16.478;2023-04-09T21:12:16;100652.81;;;7.10;67.10
19594;BME280;9944;48.240;16.478;2023-04-09T21:16:19;100639.59;;;7.07;67.05
19594;BME280;9944;48.240;16.478;2023-04-09T21:20:23;100641.28;;;7.03;67.22
19594;BME280;9944;48.240;16.478;2023-04-09T21:24:26;100642.91;;;6.98;67.26
19594;BME280;9944;48.240;16.478;2023-04-09T21:28:29;100645.44;;;6.95;67.42
19594;BME280;9944;48.240;16.478;2023-04-09T21:32:32;100639.25;;;6.93;67.41
19594;BME280;9944;48.240;16.478;2023-04-09T21:36:37;100639.13;;;6.89;67.60